sensor_id;sensor_type;location;lat;lon;timestamp;P1;durP1;ratioP1;P2;durP2;ratioP2
17965;SDS011;9108;53.204;10.424;2023-06-26T00:00:30;15.10;;;10.30;;
17965;SDS011;9108;53.204;10.424;2023-06-26T00:02:58;13.10;;;10.48;;
17965;SDS011;9108;53.204;10.424;2023-06-26T00:05:26;14.60;;;10.55;;
17965;SDS011;9108;53.204;10.424;2023-06-26T00:07:55;12.80;;;10.63;;
17965;SDS011;9108;53.204;10.424;2023-06-26T00:10:25;14.40;;;10.43;;
17965;SDS011;9108;53.204;10.424;2023-06-26T00:12:52;13.95;;;10.63;;
17965;SDS011;9108;53.204;10.424;2023-06-26T00:15:19;14.23;;;10.98;;
17965;SDS011;9108;53.204;10.424;2023-06-26T00:17:47;13.30;;;10.60;;
17965;SDS011;9108;53.204;10.424;2023-06-26T00:20:15;13.88;;;10.95;;
17965;SDS011;9108;53.204;10.424;2023-06-26T00:22:45;13.95;;;10.52;;
17965;SDS011;9108;53.204;10.424;2023-06-26T00:25:12;13.85;;;10.93;;
17965;SDS011;9108;53.204;10.424;2023-06-26T00:27:39;13.48;;;10.80;;
17965;SDS011;9108;53.204;10.424;2023-06-26T00:30:07;14.05;;;10.52;;
17965;SDS011;9108;53.204;10.424;2023-06-26T00:32:34;14.00;;;10.43;;
17965;SDS011;9108;53.204;10.424;2023-06-26T00:35:01;12.60;;;10.15;;
17965;SDS011;9108;53.204;10.424;2023-06-26T00:37:29;13.55;;;10.15;;
17965;SDS011;9108;53.204;10.424;2023-06-26T00:39:57;13.00;;;10.65;;
17965;SDS011;9108;53.204;10.424;2023-06-26T00:42:24;13.05;;;10.57;;
17965;SDS011;9108;53.204;10.424;2023-06-26T00:44:51;14.32;;;10.85;;
17965;SDS011;9108;53.204;10.424;2023-06-26T00:47:18;13.93;;;11.10;;
17965;SDS011;9108;53.204;10.424;2023-06-26T00:49:45;14.13;;;11.40;;
17965;SDS011;9108;53.204;10.424;2023-06-26T00:52:13;13.17;;;10.73;;
17965;SDS011;9108;53.204;10.424;2023-06-26T00:54:41;15.87;;;11.03;;
17965;SDS011;9108;53.204;10.424;2023-06-26T00:57:10;14.32;;;11.05;;
17965;SDS011;9108;53.204;10.424;2023-06-26T00:59:37;14.35;;;10.57;;
17965;SDS011;9108;53.204;10.424;2023-06-26T01:02:04;14.05;;;11.15;;
17965;SDS011;9108;53.204;10.424;2023-06-26T01:04:32;13.45;;;10.70;;
17965;SDS011;9108;53.204;10.424;2023-06-26T01:06:59;14.33;;;11.07;;
17965;SDS011;9108;53.204;10.424;2023-06-26T01:09:28;14.93;;;10.95;;
17965;SDS011;9108;53.204;10.424;2023-06-26T01:11:55;14.40;;;11.32;;
17965;SDS011;9108;53.204;10.424;2023-06-26T01:14:24;12.88;;;10.60;;
17965;SDS011;9108;53.204;10.424;2023-06-26T01:16:51;14.07;;;11.20;;
17965;SDS011;9108;53.204;10.424;2023-06-26T01:19:23;15.30;;;11.52;;
17965;SDS011;9108;53.204;10.424;2023-06-26T01:21:51;15.32;;;11.02;;
17965;SDS011;9108;53.204;10.424;2023-06-26T01:24:22;15.05;;;11.30;;
17965;SDS011;9108;53.204;10.424;2023-06-26T01:26:53;13.30;;;10.70;;
17965;SDS011;9108;53.204;10.424;2023-06-26T01:29:20;13.83;;;10.87;;
17965;SDS011;9108;53.204;10.424;2023-06-26T01:31:49;14.50;;;10.88;;
17965;SDS011;9108;53.204;10.424;2023-06-26T01:34:16;14.70;;;10.55;;
17965;SDS011;9108;53.204;10.424;2023-06-26T01:36:44;14.10;;;11.02;;
17965;SDS011;9108;53.204;10.424;2023-06-26T01:39:12;14.30;;;11.23;;
17965;SDS011;9108;53.204;10.424;2023-06-26T01:41:39;15.30;;;11.23;;
17965;SDS011;9108;53.204;10.424;2023-06-26T01:44:14;15.50;;;11.20;;
17965;SDS011;9108;53.204;10.424;2023-06-26T01:46:47;14.88;;;10.98;;
17965;SDS011;9108;53.204;10.424;2023-06-26T01:49:18;14.05;;;10.35;;
17965;SDS011;9108;53.204;10.424;2023-06-26T01:51:51;13.93;;;10.45;;
17965;SDS011;9108;53.204;10.424;2023-06-26T01:54:18;13.15;;;10.23;;
17965;SDS011;9108;53.204;10.424;2023-06-26T01:56:49;14.32;;;9.80;;
17965;SDS011;9108;53.204;10.424;2023-06-26T01:59:18;15.23;;;10.52;;
17965;SDS011;9108;53.204;10.424;2023-06-26T02:01:46;13.98;;;10.70;;
17965;SDS011;9108;53.204;10.424;2023-06-26T02:04:13;13.73;;;10.68;;
17965;SDS011;9108;53.204;10.424;2023-06-26T02:06:40;15.55;;;10.75;;
17965;SDS011;9108;53.204;10.424;2023-06-26T02:09:07;14.88;;;10.93;;
17965;SDS011;9108;53.204;10.424;2023-06-26T02:11:34;13.65;;;10.55;;
17965;SDS011;9108;53.204;10.424;2023-06-26T02:14:01;14.90;;;10.85;;
17965;SDS011;9108;53.204;10.424;2023-06-26T02:16:30;15.88;;;11.80;;
17965;SDS011;9108;53.204;10.424;2023-06-26T02:18:58;14.82;;;10.70;;
17965;SDS011;9108;53.204;10.424;2023-06-26T02:21:25;15.63;;;11.15;;
17965;SDS011;9108;53.204;10.424;2023-06-26T02:23:52;14.77;;;11.25;;
17965;SDS011;9108;53.204;10.424;2023-06-26T02:26:19;14.05;;;10.80;;
17965;SDS011;9108;53.204;10.424;2023-06-26T02:28:47;13.68;;;10.50;;
17965;SDS011;9108;53.204;10.424;2023-06-26T02:31:14;16.23;;;10.68;;
17965;SDS011;9108;53.204;10.424;2023-06-26T02:33:43;14.88;;;10.55;;
17965;SDS011;9108;53.204;10.424;2023-06-26T02:36:10;13.45;;;10.40;;
17965;SDS011;9108;53.204;10.424;2023-06-26T02:38:37;15.40;;;10.25;;
17965;SDS011;9108;53.204;10.424;2023-06-26T02:41:04;15.27;;;10.55;;
17965;SDS011;9108;53.204;10.424;2023-06-26T02:43:31;12.25;;;9.95;;
17965;SDS011;9108;53.204;10.424;2023-06-26T02:45:59;14.52;;;10.50;;
17965;SDS011;9108;53.204;10.424;2023-06-26T02:48:26;16.60;;;10.90;;
17965;SDS011;9108;53.204;10.424;2023-06-26T02:50:54;14.27;;;10.40;;
17965;SDS011;9108;53.204;10.424;2023-06-26T02:53:21;14.35;;;10.10;;
17965;SDS011;9108;53.204;10.424;2023-06-26T02:55:48;14.32;;;10.15;;
17965;SDS011;9108;53.204;10.424;2023-06-26T02:58:16;15.00;;;10.38;;
17965;SDS011;9108;53.204;10.424;2023-06-26T03:00:43;13.43;;;10.30;;
17965;SDS011;9108;53.204;10.424;2023-06-26T03:03:10;14.00;;;10.60;;
17965;SDS011;9108;53.204;10.424;2023-06-26T03:05:38;13.20;;;10.30;;
17965;SDS011;9108;53.204;10.424;2023-06-26T03:08:06;13.82;;;10.13;;
17965;SDS011;9108;53.204;10.424;2023-06-26T03:10:33;14.13;;;10.70;;
17965;SDS011;9108;53.204;10.424;2023-06-26T03:13:00;15.77;;;11.30;;
17965;SDS011;9108;53.204;10.424;2023-06-26T03:15:28;15.27;;;10.23;;
17965;SDS011;9108;53.204;10.424;2023-06-26T03:17:55;15.38;;;10.20;;
17965;SDS011;9108;53.204;10.424;2023-06-26T03:20:22;14.70;;;10.43;;
17965;SDS011;9108;53.204;10.424;2023-06-26T03:22:49;17.95;;;10.27;;
17965;SDS011;9108;53.204;10.424;2023-06-26T03:25:17;14.90;;;10.45;;
17965;SDS011;9108;53.204;10.424;2023-06-26T03:27:44;14.20;;;9.93;;
17965;SDS011;9108;53.204;10.424;2023-06-26T03:30:12;15.07;;;10.77;;
17965;SDS011;9108;53.204;10.424;2023-06-26T03:32:39;14.57;;;9.82;;
17965;SDS011;9108;53.204;10.424;2023-06-26T03:35:06;13.88;;;9.82;;
17965;SDS011;9108;53.204;10.424;2023-06-26T03:37:34;13.32;;;9.45;;
17965;SDS011;9108;53.204;10.424;2023-06-26T03:40:01;13.85;;;9.50;;
17965;SDS011;9108;53.204;10.424;2023-06-26T03:42:31;12.82;;;9.82;;
17965;SDS011;9108;53.204;10.424;2023-06-26T03:44:58;12.00;;;9.20;;
17965;SDS011;9108;53.204;10.424;2023-06-26T03:47:26;13.10;;;9.25;;
17965;SDS011;9108;53.204;10.424;2023-06-26T03:49:53;13.88;;;9.63;;
17965;SDS011;9108;53.204;10.424;2023-06-26T03:52:20;14.40;;;9.75;;
17965;SDS011;9108;53.204;10.424;2023-06-26T03:54:47;11.60;;;9.00;;
17965;SDS011;9108;53.204;10.424;2023-06-26T03:57:14;13.27;;;9.17;;
17965;SDS011;9108;53.204;10.424;2023-06-26T03:59:43;13.13;;;9.00;;
17965;SDS011;9108;53.204;10.424;2023-06-26T04:02:10;12.35;;;8.88;;
17965;SDS011;9108;53.204;10.424;2023-06-26T04:04:37;11.38;;;8.40;;
17965;SDS011;9108;53.204;10.424;2023-06-26T04:07:04;12.85;;;8.38;;
17965;SDS011;9108;53.204;10.424;2023-06-26T04:09:32;12.30;;;8.50;;
17965;SDS011;9108;53.204;10.424;2023-06-26T04:11:59;12.82;;;8.70;;
17965;SDS011;9108;53.204;10.424;2023-06-26T04:14:26;13.02;;;8.82;;
17965;SDS011;9108;53.204;10.424;2023-06-26T04:16:54;12.70;;;8.85;;
17965;SDS011;9108;53.204;10.424;2023-06-26T04:19:22;12.68;;;8.65;;
17965;SDS011;9108;53.204;10.424;2023-06-26T04:21:50;11.40;;;8.50;;
17965;SDS011;9108;53.204;10.424;2023-06-26T04:24:17;14.43;;;8.60;;
17965;SDS011;9108;53.204;10.424;2023-06-26T04:26:44;13.27;;;8.30;;
17965;SDS011;9108;53.204;10.424;2023-06-26T04:29:11;13.27;;;8.90;;
17965;SDS011;9108;53.204;10.424;2023-06-26T04:31:38;13.13;;;8.32;;
17965;SDS011;9108;53.204;10.424;2023-06-26T04:34:07;11.55;;;7.90;;
17965;SDS011;9108;53.204;10.424;2023-06-26T04:36:34;14.18;;;8.77;;
17965;SDS011;9108;53.204;10.424;2023-06-26T04:39:04;11.48;;;8.48;;
17965;SDS011;9108;53.204;10.424;2023-06-26T04:41:32;13.25;;;8.05;;
17965;SDS011;9108;53.204;10.424;2023-06-26T04:43:59;13.45;;;8.55;;
17965;SDS011;9108;53.204;10.424;2023-06-26T04:46:27;11.35;;;8.25;;
17965;SDS011;9108;53.204;10.424;2023-06-26T04:48:54;12.70;;;8.38;;
17965;SDS011;9108;53.204;10.424;2023-06-26T04:51:24;13.75;;;7.97;;
17965;SDS011;9108;53.204;10.424;2023-06-26T04:53:52;11.93;;;7.75;;
17965;SDS011;9108;53.204;10.424;2023-06-26T04:56:19;11.33;;;7.60;;
17965;SDS011;9108;53.204;10.424;2023-06-26T04:58:46;13.13;;;7.65;;
17965;SDS011;9108;53.204;10.424;2023-06-26T05:01:13;11.98;;;7.68;;
17965;SDS011;9108;53.204;10.424;2023-06-26T05:03:40;13.52;;;7.82;;
17965;SDS011;9108;53.204;10.424;2023-06-26T05:06:08;12.40;;;7.28;;
17965;SDS011;9108;53.204;10.424;2023-06-26T05:08:36;10.05;;;7.35;;
17965;SDS011;9108;53.204;10.424;2023-06-26T05:11:03;11.80;;;7.60;;
17965;SDS011;9108;53.204;10.424;2023-06-26T05:13:30;9.88;;;7.28;;
17965;SDS011;9108;53.204;10.424;2023-06-26T05:15:58;11.20;;;7.60;;
17965;SDS011;9108;53.204;10.424;2023-06-26T05:18:25;13.33;;;7.40;;
17965;SDS011;9108;53.204;10.424;2023-06-26T05:20:54;10.77;;;7.13;;
17965;SDS011;9108;53.204;10.424;2023-06-26T05:23:22;9.43;;;7.22;;
17965;SDS011;9108;53.204;10.424;2023-06-26T05:25:52;11.55;;;6.90;;
17965;SDS011;9108;53.204;10.424;2023-06-26T05:28:19;11.00;;;6.83;;
17965;SDS011;9108;53.204;10.424;2023-06-26T05:30:48;9.60;;;6.72;;
17965;SDS011;9108;53.204;10.424;2023-06-26T05:33:16;9.88;;;6.75;;
17965;SDS011;9108;53.204;10.424;2023-06-26T05:35:45;9.55;;;6.53;;
17965;SDS011;9108;53.204;10.424;2023-06-26T05:38:13;12.50;;;6.90;;
17965;SDS011;9108;53.204;10.424;2023-06-26T05:40:42;9.65;;;6.80;;
17965;SDS011;9108;53.204;10.424;2023-06-26T05:43:11;9.18;;;6.40;;
17965;SDS011;9108;53.204;10.424;2023-06-26T05:45:39;11.90;;;7.00;;
17965;SDS011;9108;53.204;10.424;2023-06-26T05:48:09;13.15;;;6.43;;
17965;SDS011;9108;53.204;10.424;2023-06-26T05:50:38;10.70;;;6.25;;
17965;SDS011;9108;53.204;10.424;2023-06-26T11:48:12;13.65;;;8.23;;
17965;SDS011;9108;53.204;10.424;2023-06-26T11:50:39;14.10;;;8.50;;
17965;SDS011;9108;53.204;10.424;2023-06-26T11:53:06;17.00;;;8.80;;
17965;SDS011;9108;53.204;10.424;2023-06-26T11:55:40;15.30;;;8.93;;
17965;SDS011;9108;53.204;10.424;2023-06-26T11:58:07;15.10;;;9.27;;
17965;SDS011;9108;53.204;10.424;2023-06-26T12:00:35;18.55;;;9.95;;
17965;SDS011;9108;53.204;10.424;2023-06-26T12:03:02;15.07;;;9.10;;
17965;SDS011;9108;53.204;10.424;2023-06-26T12:05:30;17.25;;;8.98;;
17965;SDS011;9108;53.204;10.424;2023-06-26T12:07:58;17.17;;;9.10;;
17965;SDS011;9108;53.204;10.424;2023-06-26T12:10:26;15.35;;;8.98;;
17965;SDS011;9108;53.204;10.424;2023-06-26T12:12:54;16.95;;;9.05;;
17965;SDS011;9108;53.204;10.424;2023-06-26T12:15:24;17.75;;;8.45;;
17965;SDS011;9108;53.204;10.424;2023-06-26T12:17:51;14.32;;;8.25;;
17965;SDS011;9108;53.204;10.424;2023-06-26T12:20:21;15.18;;;7.30;;
17965;SDS011;9108;53.204;10.424;2023-06-26T12:22:53;13.43;;;6.18;;
17965;SDS011;9108;53.204;10.424;2023-06-26T12:25:26;14.07;;;5.72;;
17965;SDS011;9108;53.204;10.424;2023-06-26T12:27:53;16.15;;;4.70;;
17965;SDS011;9108;53.204;10.424;2023-06-26T12:30:27;12.45;;;4.82;;
17965;SDS011;9108;53.204;10.424;2023-06-26T12:32:55;12.20;;;4.23;;
17965;SDS011;9108;53.204;10.424;2023-06-26T12:35:22;9.70;;;3.90;;
17965;SDS011;9108;53.204;10.424;2023-06-26T12:37:53;11.00;;;3.75;;
17965;SDS011;9108;53.204;10.424;2023-06-26T12:40:20;10.00;;;3.50;;
17965;SDS011;9108;53.204;10.424;2023-06-26T12:42:48;8.77;;;3.35;;
17965;SDS011;9108;53.204;10.424;2023-06-26T12:45:15;9.55;;;3.40;;
17965;SDS011;9108;53.204;10.424;2023-06-26T12:47:42;7.82;;;3.20;;
17965;SDS011;9108;53.204;10.424;2023-06-26T12:50:11;8.13;;;3.20;;
17965;SDS011;9108;53.204;10.424;2023-06-26T12:52:38;11.20;;;3.55;;
17965;SDS011;9108;53.204;10.424;2023-06-26T12:55:07;10.32;;;3.55;;
17965;SDS011;9108;53.204;10.424;2023-06-26T12:57:35;8.45;;;2.63;;
17965;SDS011;9108;53.204;10.424;2023-06-26T13:00:03;8.55;;;2.50;;
17965;SDS011;9108;53.204;10.424;2023-06-26T13:02:31;6.67;;;2.17;;
17965;SDS011;9108;53.204;10.424;2023-06-26T13:04:58;8.02;;;2.33;;
17965;SDS011;9108;53.204;10.424;2023-06-26T13:07:25;6.72;;;2.35;;
17965;SDS011;9108;53.204;10.424;2023-06-26T13:09:52;9.90;;;2.30;;
17965;SDS011;9108;53.204;10.424;2023-06-26T13:12:22;8.03;;;2.20;;
17965;SDS011;9108;53.204;10.424;2023-06-26T13:14:52;8.03;;;2.27;;
17965;SDS011;9108;53.204;10.424;2023-06-26T13:17:22;8.50;;;2.17;;
17965;SDS011;9108;53.204;10.424;2023-06-26T13:19:49;8.00;;;2.15;;
17965;SDS011;9108;53.204;10.424;2023-06-26T13:22:16;9.48;;;2.40;;
17965;SDS011;9108;53.204;10.424;2023-06-26T13:24:43;8.43;;;2.10;;
17965;SDS011;9108;53.204;10.424;2023-06-26T13:27:12;6.45;;;2.10;;
17965;SDS011;9108;53.204;10.424;2023-06-26T13:29:40;7.80;;;2.10;;
17965;SDS011;9108;53.204;10.424;2023-06-26T13:32:10;7.97;;;2.10;;
17965;SDS011;9108;53.204;10.424;2023-06-26T13:34:37;8.98;;;2.17;;
17965;SDS011;9108;53.204;10.424;2023-06-26T13:37:05;8.87;;;2.40;;
17965;SDS011;9108;53.204;10.424;2023-06-26T13:39:32;8.75;;;2.22;;
17965;SDS011;9108;53.204;10.424;2023-06-26T13:41:59;7.90;;;2.30;;
17965;SDS011;9108;53.204;10.424;2023-06-26T13:44:26;9.45;;;2.22;;
17965;SDS011;9108;53.204;10.424;2023-06-26T13:46:55;7.75;;;2.00;;
17965;SDS011;9108;53.204;10.424;2023-06-26T13:49:22;7.15;;;2.28;;
17965;SDS011;9108;53.204;10.424;2023-06-26T13:51:49;12.15;;;2.22;;
17965;SDS011;9108;53.204;10.424;2023-06-26T13:54:16;9.63;;;2.30;;
17965;SDS011;9108;53.204;10.424;2023-06-26T13:56:44;7.97;;;2.15;;
17965;SDS011;9108;53.204;10.424;2023-06-26T13:59:11;10.05;;;2.33;;
17965;SDS011;9108;53.204;10.424;2023-06-26T14:01:39;7.43;;;2.25;;
17965;SDS011;9108;53.204;10.424;2023-06-26T14:04:10;7.75;;;2.53;;
17965;SDS011;9108;53.204;10.424;2023-06-26T14:06:37;7.50;;;2.20;;
17965;SDS011;9108;53.204;10.424;2023-06-26T14:09:04;8.40;;;2.13;;
17965;SDS011;9108;53.204;10.424;2023-06-26T14:11:32;7.63;;;1.90;;
17965;SDS011;9108;53.204;10.424;2023-06-26T14:14:02;7.95;;;2.13;;
17965;SDS011;9108;53.204;10.424;2023-06-26T14:16:29;7.20;;;2.13;;
17965;SDS011;9108;53.204;10.424;2023-06-26T14:18:57;7.88;;;2.05;;
17965;SDS011;9108;53.204;10.424;2023-06-26T14:21:26;7.85;;;2.00;;
17965;SDS011;9108;53.204;10.424;2023-06-26T14:23:53;7.65;;;2.30;;
17965;SDS011;9108;53.204;10.424;2023-06-26T14:26:20;7.95;;;1.98;;
17965;SDS011;9108;53.204;10.424;2023-06-26T14:28:47;6.93;;;2.10;;
17965;SDS011;9108;53.204;10.424;2023-06-26T14:31:14;9.98;;;2.10;;
17965;SDS011;9108;53.204;10.424;2023-06-26T14:33:41;11.13;;;2.03;;
17965;SDS011;9108;53.204;10.424;2023-06-26T14:36:09;5.60;;;1.73;;
17965;SDS011;9108;53.204;10.424;2023-06-26T14:38:37;6.57;;;2.13;;
17965;SDS011;9108;53.204;10.424;2023-06-26T14:41:04;8.73;;;2.20;;
17965;SDS011;9108;53.204;10.424;2023-06-26T14:43:31;6.90;;;1.90;;
17965;SDS011;9108;53.204;10.424;2023-06-26T14:45:58;7.90;;;2.00;;
17965;SDS011;9108;53.204;10.424;2023-06-26T14:48:25;7.35;;;1.98;;
17965;SDS011;9108;53.204;10.424;2023-06-26T14:50:53;6.07;;;1.70;;
17965;SDS011;9108;53.204;10.424;2023-06-26T14:53:20;6.35;;;2.00;;
17965;SDS011;9108;53.204;10.424;2023-06-26T14:55:48;8.60;;;2.08;;
17965;SDS011;9108;53.204;10.424;2023-06-26T14:58:15;8.65;;;2.10;;
17965;SDS011;9108;53.204;10.424;2023-06-26T15:00:42;8.32;;;1.90;;
17965;SDS011;9108;53.204;10.424;2023-06-26T15:03:09;8.13;;;2.00;;
17965;SDS011;9108;53.204;10.424;2023-06-26T15:05:40;8.80;;;1.98;;
17965;SDS011;9108;53.204;10.424;2023-06-26T15:08:07;6.63;;;1.90;;
17965;SDS011;9108;53.204;10.424;2023-06-26T15:10:34;5.88;;;1.83;;
17965;SDS011;9108;53.204;10.424;2023-06-26T15:13:03;5.35;;;1.75;;
17965;SDS011;9108;53.204;10.424;2023-06-26T15:15:31;5.78;;;1.80;;
17965;SDS011;9108;53.204;10.424;2023-06-26T15:17:58;5.28;;;1.80;;
17965;SDS011;9108;53.204;10.424;2023-06-26T15:20:26;5.38;;;1.70;;
17965;SDS011;9108;53.204;10.424;2023-06-26T15:22:53;6.40;;;1.70;;
17965;SDS011;9108;53.204;10.424;2023-06-26T15:25:21;7.20;;;1.80;;
17965;SDS011;9108;53.204;10.424;2023-06-26T15:27:48;8.85;;;1.80;;
17965;SDS011;9108;53.204;10.424;2023-06-26T15:30:17;6.53;;;1.92;;
17965;SDS011;9108;53.204;10.424;2023-06-26T15:32:44;5.45;;;1.70;;
17965;SDS011;9108;53.204;10.424;2023-06-26T15:35:12;5.43;;;1.83;;
17965;SDS011;9108;53.204;10.424;2023-06-26T15:37:39;6.57;;;1.90;;
17965;SDS011;9108;53.204;10.424;2023-06-26T15:40:07;6.03;;;1.80;;
17965;SDS011;9108;53.204;10.424;2023-06-26T15:42:44;6.82;;;1.85;;
17965;SDS011;9108;53.204;10.424;2023-06-26T15:45:11;4.43;;;1.70;;
17965;SDS011;9108;53.204;10.424;2023-06-26T15:47:40;6.55;;;1.80;;
17965;SDS011;9108;53.204;10.424;2023-06-26T15:50:10;7.07;;;1.90;;
17965;SDS011;9108;53.204;10.424;2023-06-26T15:52:37;8.48;;;2.00;;
17965;SDS011;9108;53.204;10.424;2023-06-26T15:55:04;5.83;;;1.80;;
17965;SDS011;9108;53.204;10.424;2023-06-26T15:57:32;4.93;;;1.85;;
17965;SDS011;9108;53.204;10.424;2023-06-26T15:59:59;7.03;;;1.90;;
17965;SDS011;9108;53.204;10.424;2023-06-26T16:02:26;6.50;;;1.90;;
17965;SDS011;9108;53.204;10.424;2023-06-26T16:04:55;5.88;;;1.85;;
17965;SDS011;9108;53.204;10.424;2023-06-26T16:07:22;10.68;;;1.80;;
17965;SDS011;9108;53.204;10.424;2023-06-26T16:09:49;5.70;;;1.50;;
17965;SDS011;9108;53.204;10.424;2023-06-26T16:12:17;5.90;;;1.85;;
17965;SDS011;9108;53.204;10.424;2023-06-26T16:14:44;5.63;;;1.50;;
17965;SDS011;9108;53.204;10.424;2023-06-26T16:17:11;6.97;;;1.70;;
17965;SDS011;9108;53.204;10.424;2023-06-26T16:19:38;6.38;;;1.40;;
17965;SDS011;9108;53.204;10.424;2023-06-26T16:22:07;3.58;;;1.30;;
17965;SDS011;9108;53.204;10.424;2023-06-26T16:24:34;6.10;;;1.40;;
17965;SDS011;9108;53.204;10.424;2023-06-26T16:27:01;3.78;;;1.50;;
17965;SDS011;9108;53.204;10.424;2023-06-26T16:29:28;5.93;;;1.80;;
17965;SDS011;9108;53.204;10.424;2023-06-26T16:31:57;5.20;;;1.63;;
17965;SDS011;9108;53.204;10.424;2023-06-26T16:34:33;10.75;;;2.38;;
17965;SDS011;9108;53.204;10.424;2023-06-26T16:37:02;7.57;;;1.55;;
17965;SDS011;9108;53.204;10.424;2023-06-26T16:39:34;10.20;;;2.17;;
17965;SDS011;9108;53.204;10.424;2023-06-26T16:42:05;6.57;;;1.50;;
17965;SDS011;9108;53.204;10.424;2023-06-26T16:44:33;15.18;;;4.93;;
17965;SDS011;9108;53.204;10.424;2023-06-26T16:47:00;14.27;;;3.50;;
17965;SDS011;9108;53.204;10.424;2023-06-26T16:49:27;16.35;;;4.68;;
17965;SDS011;9108;53.204;10.424;2023-06-26T16:51:55;12.63;;;3.47;;
17965;SDS011;9108;53.204;10.424;2023-06-26T16:54:22;4.45;;;1.23;;
17965;SDS011;9108;53.204;10.424;2023-06-26T16:56:51;13.73;;;3.28;;
17965;SDS011;9108;53.204;10.424;2023-06-26T16:59:18;7.20;;;2.08;;
17965;SDS011;9108;53.204;10.424;2023-06-26T17:01:45;7.88;;;2.78;;
17965;SDS011;9108;53.204;10.424;2023-06-26T17:04:12;8.77;;;2.45;;
17965;SDS011;9108;53.204;10.424;2023-06-26T17:06:40;9.70;;;2.73;;
17965;SDS011;9108;53.204;10.424;2023-06-26T17:09:08;10.35;;;2.67;;
17965;SDS011;9108;53.204;10.424;2023-06-26T17:11:35;4.13;;;1.63;;
17965;SDS011;9108;53.204;10.424;2023-06-26T17:14:04;11.15;;;3.05;;
17965;SDS011;9108;53.204;10.424;2023-06-26T17:16:31;7.78;;;2.53;;
17965;SDS011;9108;53.204;10.424;2023-06-26T17:18:58;4.82;;;1.50;;
17965;SDS011;9108;53.204;10.424;2023-06-26T17:21:26;4.13;;;1.27;;
17965;SDS011;9108;53.204;10.424;2023-06-26T17:23:56;6.38;;;1.45;;
17965;SDS011;9108;53.204;10.424;2023-06-26T17:26:24;9.38;;;1.48;;
17965;SDS011;9108;53.204;10.424;2023-06-26T17:28:51;6.03;;;1.42;;
17965;SDS011;9108;53.204;10.424;2023-06-26T17:31:20;5.80;;;1.50;;
17965;SDS011;9108;53.204;10.424;2023-06-26T17:33:47;5.00;;;1.38;;
17965;SDS011;9108;53.204;10.424;2023-06-26T17:36:14;3.05;;;1.10;;
17965;SDS011;9108;53.204;10.424;2023-06-26T17:41:55;3.88;;;1.33;;
17965;SDS011;9108;53.204;10.424;2023-06-26T17:44:24;3.72;;;1.27;;
17965;SDS011;9108;53.204;10.424;2023-06-26T17:46:55;3.90;;;1.30;;
17965;SDS011;9108;53.204;10.424;2023-06-26T17:49:22;4.30;;;1.27;;
17965;SDS011;9108;53.204;10.424;2023-06-26T17:51:50;5.57;;;1.40;;
17965;SDS011;9108;53.204;10.424;2023-06-26T17:54:17;6.20;;;1.50;;
17965;SDS011;9108;53.204;10.424;2023-06-26T17:56:44;4.53;;;1.20;;
17965;SDS011;9108;53.204;10.424;2023-06-26T17:59:12;6.47;;;1.48;;
17965;SDS011;9108;53.204;10.424;2023-06-26T18:01:39;4.65;;;1.50;;
17965;SDS011;9108;53.204;10.424;2023-06-26T18:04:08;4.55;;;1.38;;
17965;SDS011;9108;53.204;10.424;2023-06-26T18:06:35;6.10;;;1.50;;
17965;SDS011;9108;53.204;10.424;2023-06-26T18:09:04;6.38;;;1.50;;
17965;SDS011;9108;53.204;10.424;2023-06-26T18:11:32;5.35;;;1.30;;
17965;SDS011;9108;53.204;10.424;2023-06-26T18:14:00;5.05;;;1.42;;
17965;SDS011;9108;53.204;10.424;2023-06-26T18:16:27;5.82;;;1.42;;
17965;SDS011;9108;53.204;10.424;2023-06-26T18:18:55;5.63;;;1.47;;
17965;SDS011;9108;53.204;10.424;2023-06-26T18:21:25;6.55;;;1.73;;
17965;SDS011;9108;53.204;10.424;2023-06-26T18:23:53;6.05;;;1.60;;
17965;SDS011;9108;53.204;10.424;2023-06-26T18:26:20;5.70;;;1.52;;
17965;SDS011;9108;53.204;10.424;2023-06-26T18:28:49;5.00;;;1.60;;
17965;SDS011;9108;53.204;10.424;2023-06-26T18:31:17;5.35;;;1.60;;
17965;SDS011;9108;53.204;10.424;2023-06-26T18:33:45;6.93;;;1.70;;
17965;SDS011;9108;53.204;10.424;2023-06-26T18:36:14;4.60;;;1.43;;
17965;SDS011;9108;53.204;10.424;2023-06-26T18:38:43;6.22;;;1.50;;
17965;SDS011;9108;53.204;10.424;2023-06-26T18:41:14;4.32;;;1.45;;
17965;SDS011;9108;53.204;10.424;2023-06-26T18:43:41;6.60;;;1.55;;
17965;SDS011;9108;53.204;10.424;2023-06-26T18:46:12;6.32;;;1.60;;
17965;SDS011;9108;53.204;10.424;2023-06-26T18:48:43;4.47;;;1.70;;
17965;SDS011;9108;53.204;10.424;2023-06-26T18:51:10;7.83;;;1.87;;
17965;SDS011;9108;53.204;10.424;2023-06-26T18:53:39;7.55;;;1.67;;
17965;SDS011;9108;53.204;10.424;2023-06-26T18:56:07;6.20;;;1.63;;
17965;SDS011;9108;53.204;10.424;2023-06-26T18:58:35;8.73;;;1.93;;
17965;SDS011;9108;53.204;10.424;2023-06-26T19:01:04;7.38;;;1.83;;
17965;SDS011;9108;53.204;10.424;2023-06-26T19:03:32;8.65;;;1.90;;
17965;SDS011;9108;53.204;10.424;2023-06-26T19:05:59;6.90;;;1.80;;
17965;SDS011;9108;53.204;10.424;2023-06-26T19:08:26;8.07;;;1.70;;
17965;SDS011;9108;53.204;10.424;2023-06-26T19:10:54;6.07;;;1.90;;
17965;SDS011;9108;53.204;10.424;2023-06-26T19:13:22;6.35;;;1.80;;
17965;SDS011;9108;53.204;10.424;2023-06-26T19:15:49;7.50;;;1.95;;
17965;SDS011;9108;53.204;10.424;2023-06-26T19:18:17;8.95;;;2.10;;
17965;SDS011;9108;53.204;10.424;2023-06-26T19:20:44;8.63;;;2.00;;
17965;SDS011;9108;53.204;10.424;2023-06-26T19:23:11;7.18;;;1.80;;
17965;SDS011;9108;53.204;10.424;2023-06-26T19:25:38;9.07;;;1.90;;
17965;SDS011;9108;53.204;10.424;2023-06-26T19:28:05;7.18;;;1.92;;
17965;SDS011;9108;53.204;10.424;2023-06-26T19:30:35;7.93;;;2.10;;
17965;SDS011;9108;53.204;10.424;2023-06-26T19:33:03;11.10;;;2.28;;
17965;SDS011;9108;53.204;10.424;2023-06-26T19:35:30;7.55;;;1.88;;
17965;SDS011;9108;53.204;10.424;2023-06-26T19:37:57;7.80;;;2.05;;
17965;SDS011;9108;53.204;10.424;2023-06-26T19:40:24;9.48;;;2.03;;
17965;SDS011;9108;53.204;10.424;2023-06-26T19:42:52;7.22;;;1.85;;
17965;SDS011;9108;53.204;10.424;2023-06-26T19:45:19;9.23;;;2.00;;
17965;SDS011;9108;53.204;10.424;2023-06-26T19:47:47;8.50;;;2.10;;
17965;SDS011;9108;53.204;10.424;2023-06-26T19:50:16;10.77;;;2.20;;
17965;SDS011;9108;53.204;10.424;2023-06-26T19:52:44;7.97;;;1.80;;
17965;SDS011;9108;53.204;10.424;2023-06-26T19:55:11;12.15;;;2.30;;
17965;SDS011;9108;53.204;10.424;2023-06-26T19:57:38;9.43;;;2.08;;
17965;SDS011;9108;53.204;10.424;2023-06-26T20:00:05;9.38;;;2.10;;
17965;SDS011;9108;53.204;10.424;2023-06-26T20:02:33;9.43;;;2.22;;
17965;SDS011;9108;53.204;10.424;2023-06-26T20:05:01;12.52;;;2.10;;
17965;SDS011;9108;53.204;10.424;2023-06-26T20:07:29;9.70;;;2.03;;
17965;SDS011;9108;53.204;10.424;2023-06-26T20:09:56;8.02;;;1.90;;
17965;SDS011;9108;53.204;10.424;2023-06-26T20:12:23;8.82;;;2.00;;
17965;SDS011;9108;53.204;10.424;2023-06-26T20:14:50;8.73;;;2.17;;
17965;SDS011;9108;53.204;10.424;2023-06-26T20:17:18;8.57;;;2.13;;
17965;SDS011;9108;53.204;10.424;2023-06-26T20:19:45;11.07;;;2.10;;
17965;SDS011;9108;53.204;10.424;2023-06-26T20:22:13;9.60;;;2.20;;
17965;SDS011;9108;53.204;10.424;2023-06-26T20:24:41;8.63;;;1.80;;
17965;SDS011;9108;53.204;10.424;2023-06-26T20:27:08;9.02;;;2.30;;
17965;SDS011;9108;53.204;10.424;2023-06-26T20:29:35;8.15;;;2.20;;
17965;SDS011;9108;53.204;10.424;2023-06-26T20:32:02;8.88;;;2.25;;
17965;SDS011;9108;53.204;10.424;2023-06-26T20:34:30;11.33;;;2.30;;
17965;SDS011;9108;53.204;10.424;2023-06-26T20:36:58;8.63;;;2.40;;
17965;SDS011;9108;53.204;10.424;2023-06-26T20:39:27;12.80;;;2.60;;